Time;durP1;ratioP1;P1;durP2;ratioP2;P2;SDS_P1;SDS_P2;PMS_P1;PMS_P2;Temp;Humidity;BMP_temperature;BMP_pressure;BME280_temperature;BME280_humidity;BME280_pressure;Samples;Min_cycle;Max_cycle;Signal;HPM_P1;HPM_P2
2021/09/16 00:00:12;;;;;;;;;;;;;;;19.98;60.28;99440.25;4428094;32;20050;-95
2021/09/16 00:02:37;;;;;;;;;;;;;;;20.03;60.28;99438.09;4427512;32;19981;-96
2021/09/16 00:05:03;;;;;;;;;;;;;;;19.99;60.27;99436.66;4427843;32;19982;-96
2021/09/16 00:07:28;;;;;;;;;;;;;;;19.92;60.27;99438.94;4427689;32;20013;-95
2021/09/16 00:09:53;;;;;;;;;;;;;;;20.04;60.28;99437.13;4427442;32;20001;-95
2021/09/16 00:12:18;;;;;;;;;;;;;;;20.08;60.29;99444.72;4426961;32;20019;-94
2021/09/16 00:14:44;;;;;;;;;;;;;;;20.05;60.28;99442.31;4426952;32;20250;-94
2021/09/16 00:17:09;;;;;;;;;;;;;;;19.90;60.27;99441.69;4426826;32;20048;-94
2021/09/16 00:19:34;;;;;;;;;;;;;;;19.93;60.27;99441.44;4426853;32;20263;-94
2021/09/16 00:21:59;;;;;;;;;;;;;;;19.82;60.27;99441.41;4426205;32;20003;-94
2021/09/16 00:24:25;;;;;;;;;;;;;;;19.87;60.27;99439.28;4426760;32;20012;-95
2021/09/16 00:26:50;;;;;;;;;;;;;;;19.89;60.27;99436.53;4426722;32;20038;-94
2021/09/16 00:29:15;;;;;;;;;;;;;;;19.93;60.28;99441.44;4426783;32;19990;-94
2021/09/16 00:31:40;;;;;;;;;;;;;;;19.93;60.26;99440.59;4426939;32;19978;-95
2021/09/16 00:34:06;;;;;;;;;;;;;;;20.04;60.29;99443.25;4426825;32;19996;-94
2021/09/16 00:36:31;;;;;;;;;;;;;;;20.01;60.28;99443.50;4426602;32;20352;-94
2021/09/16 00:38:56;;;;;;;;;;;;;;;20.05;60.28;99447.59;4427038;32;20289;-94
2021/09/16 00:41:21;;;;;;;;;;;;;;;20.11;60.29;99447.16;4426514;32;19977;-94
2021/09/16 00:43:47;;;;;;;;;;;;;;;20.17;60.29;99444.03;4425868;32;23193;-94
2021/09/16 00:46:12;;;;;;;;;;;;;;;20.14;60.28;99451.34;4426495;32;20032;-96
2021/09/16 00:48:37;;;;;;;;;;;;;;;20.16;60.30;99450.28;4427156;32;20008;-96
2021/09/16 00:51:02;;;;;;;;;;;;;;;20.18;60.29;99458.94;4427207;32;19994;-96
2021/09/16 00:53:28;;;;;;;;;;;;;;;20.32;60.30;99449.09;4427475;32;20033;-95
2021/09/16 00:55:53;;;;;;;;;;;;;;;20.39;60.29;99443.22;4427295;32;20000;-96
2021/09/16 00:58:18;;;;;;;;;;;;;;;20.33;60.29;99435.75;4427581;32;20019;-95
2021/09/16 01:00:45;;;;;;;;;;;;;;;20.39;60.29;99437.09;4428058;32;19977;-95
2021/09/16 01:03:10;;;;;;;;;;;;;;;20.40;60.30;99437.00;4428416;32;20008;-96
2021/09/16 01:05:36;;;;;;;;;;;;;;;20.40;60.30;99444.06;4428898;32;19985;-96
2021/09/16 01:08:01;;;;;;;;;;;;;;;20.41;60.30;99430.75;4431192;32;20008;-96
2021/09/16 01:10:26;;;;;;;;;;;;;;;20.48;60.31;99433.75;4428000;32;19978;-95
2021/09/16 01:12:51;;;;;;;;;;;;;;;20.51;60.30;99428.22;4427798;32;20015;-96
2021/09/16 01:15:17;;;;;;;;;;;;;;;20.47;60.31;99432.06;4427156;32;20004;-95
2021/09/16 01:17:42;;;;;;;;;;;;;;;20.49;60.31;99428.34;4427780;32;20027;-95
2021/09/16 01:20:08;;;;;;;;;;;;;;;20.64;60.31;99433.41;4427425;32;20228;-96
2021/09/16 01:22:34;;;;;;;;;;;;;;;20.65;60.31;99432.44;4427144;32;20023;-93
2021/09/16 01:24:59;;;;;;;;;;;;;;;20.76;60.32;99440.38;4426573;32;19997;-94
2021/09/16 01:27:24;;;;;;;;;;;;;;;20.89;60.33;99434.97;4413907;32;19990;-95
2021/09/16 01:29:49;;;;;;;;;;;;;;;20.87;60.32;99434.25;4415051;32;19977;-96
2021/09/16 01:32:17;;;;;;;;;;;;;;;20.78;60.31;99430.50;4429960;32;23092;-96
2021/09/16 01:37:46;;;;;;;;;;;;;;;20.78;60.31;99435.78;4451485;32;20000;-96
2021/09/16 01:40:11;;;;;;;;;;;;;;;20.93;60.32;99425.81;4429304;32;20001;-96
2021/09/16 01:42:43;;;;;;;;;;;;;;;20.86;60.32;99425.47;4428757;32;19986;-96
2021/09/16 01:45:13;;;;;;;;;;;;;;;20.91;60.32;99425.09;4429281;32;19969;-96
2021/09/16 01:47:39;;;;;;;;;;;;;;;21.02;60.33;99417.97;4429658;32;20777;-96
2021/09/16 01:50:13;;;;;;;;;;;;;;;20.98;60.32;99427.13;4431601;32;19953;-96
2021/09/16 01:52:38;;;;;;;;;;;;;;;20.89;60.33;99424.38;4450578;32;19994;-96
2021/09/16 01:55:04;;;;;;;;;;;;;;;20.83;60.32;99415.13;4429032;32;20008;-94
2021/09/16 01:57:29;;;;;;;;;;;;;;;20.98;60.32;99408.59;4427470;32;20019;-96
2021/09/16 01:59:54;;;;;;;;;;;;;;;20.92;60.32;99417.03;4428284;32;23239;-96
2021/09/16 02:02:19;;;;;;;;;;;;;;;20.86;60.32;99414.87;4428903;32;19990;-96
2021/09/16 02:04:45;;;;;;;;;;;;;;;20.83;60.31;99409.84;4430382;32;19993;-96
2021/09/16 02:07:10;;;;;;;;;;;;;;;20.80;60.32;99404.75;4444306;32;19961;-96
2021/09/16 02:09:36;;;;;;;;;;;;;;;20.84;60.32;99406.22;4428997;32;20043;-96
2021/09/16 02:12:01;;;;;;;;;;;;;;;20.81;60.32;99406.44;4429027;32;20018;-96
2021/09/16 02:14:27;;;;;;;;;;;;;;;20.79;60.32;99409.22;4428454;32;20269;-96
2021/09/16 02:16:52;;;;;;;;;;;;;;;20.66;60.31;99405.03;4433004;32;20009;-93
2021/09/16 02:19:17;;;;;;;;;;;;;;;20.67;60.31;99401.44;4442225;32;20020;-95
2021/09/16 02:21:44;;;;;;;;;;;;;;;20.71;60.31;99408.16;4442399;32;19966;-96
2021/09/16 02:30:18;;;;;;;;;;;;;;;20.52;60.30;99406.13;4448054;32;20002;-96
2021/09/16 02:32:44;;;;;;;;;;;;;;;20.44;60.30;99398.78;4433712;32;19978;-96
2021/09/16 02:35:11;;;;;;;;;;;;;;;20.50;60.30;99408.88;4422111;32;19996;-96
2021/09/16 02:37:53;;;;;;;;;;;;;;;20.39;60.29;99405.38;4439517;32;19985;-96
2021/09/16 02:40:18;;;;;;;;;;;;;;;20.42;60.30;99402.53;4428616;32;19965;-96
2021/09/16 02:42:43;;;;;;;;;;;;;;;20.48;60.30;99399.37;4428739;32;20348;-94
2021/09/16 02:45:09;;;;;;;;;;;;;;;20.56;60.31;99402.25;4427315;32;20023;-93
2021/09/16 02:47:34;;;;;;;;;;;;;;;20.45;60.29;99402.28;4427134;32;19985;-94
2021/09/16 02:49:59;;;;;;;;;;;;;;;20.45;60.29;99397.00;4426511;32;19987;-93
2021/09/16 02:52:25;;;;;;;;;;;;;;;20.48;60.30;99397.59;4428576;32;19974;-94
2021/09/16 02:54:50;;;;;;;;;;;;;;;20.42;60.30;99406.00;4426949;32;19977;-94
2021/09/16 02:57:15;;;;;;;;;;;;;;;20.50;60.30;99400.09;4414904;32;20310;-95
2021/09/16 02:59:40;;;;;;;;;;;;;;;20.54;60.30;99405.03;4426962;32;19996;-93
2021/09/16 03:02:16;;;;;;;;;;;;;;;20.62;60.30;99400.97;4438752;32;23957;-96
2021/09/16 03:04:41;;;;;;;;;;;;;;;20.61;60.30;99400.13;4449336;32;19988;-95
2021/09/16 03:07:06;;;;;;;;;;;;;;;20.40;60.30;99404.41;4439627;32;20013;-93
2021/09/16 03:09:31;;;;;;;;;;;;;;;20.53;60.30;99403.34;4426815;32;19973;-95
2021/09/16 03:11:57;;;;;;;;;;;;;;;20.56;60.30;99396.97;4428920;32;19982;-95
2021/09/16 03:14:22;;;;;;;;;;;;;;;20.53;60.30;99395.41;4427262;32;31699;-95
2021/09/16 03:16:47;;;;;;;;;;;;;;;20.48;60.30;99402.03;4427732;32;20024;-95
2021/09/16 03:19:12;;;;;;;;;;;;;;;20.34;60.29;99403.06;4427356;32;20013;-95
2021/09/16 03:21:37;;;;;;;;;;;;;;;20.38;60.29;99396.59;4427222;32;22091;-96
2021/09/16 03:24:03;;;;;;;;;;;;;;;20.53;60.29;99390.13;4427463;32;20121;-96
2021/09/16 03:26:28;;;;;;;;;;;;;;;20.48;60.30;99387.00;4427641;32;20063;-96
2021/09/16 03:28:53;;;;;;;;;;;;;;;20.46;60.29;99388.94;4427230;32;20879;-95
2021/09/16 03:31:19;;;;;;;;;;;;;;;20.58;60.30;99389.75;4427556;32;19993;-95
2021/09/16 03:33:44;;;;;;;;;;;;;;;20.58;60.30;99388.91;4431574;32;19981;-96
2021/09/16 03:36:09;;;;;;;;;;;;;;;20.57;60.30;99388.06;4432523;32;20012;-95
2021/09/16 03:38:34;;;;;;;;;;;;;;;20.57;60.31;99387.22;4427730;32;19995;-95
2021/09/16 03:41:00;;;;;;;;;;;;;;;20.67;60.31;99389.03;4427170;32;20020;-96
2021/09/16 03:43:25;;;;;;;;;;;;;;;20.64;60.30;99381.34;4427373;32;20051;-95
2021/09/16 03:45:50;;;;;;;;;;;;;;;20.53;60.30;99384.00;4427208;32;20284;-95
2021/09/16 03:48:15;;;;;;;;;;;;;;;20.58;60.30;99392.41;4426755;32;19998;-95
2021/09/16 03:50:42;;;;;;;;;;;;;;;20.53;60.30;99399.84;4427029;32;20004;-95
2021/09/16 03:53:07;;;;;;;;;;;;;;;20.64;60.31;99385.81;4427092;32;20044;-93
2021/09/16 03:55:32;;;;;;;;;;;;;;;20.59;60.30;99382.69;4426444;32;20001;-95
2021/09/16 03:57:58;;;;;;;;;;;;;;;20.61;60.30;99380.75;4426239;32;19977;-94
2021/09/16 04:00:23;;;;;;;;;;;;;;;20.63;60.31;99382.31;4426490;32;20246;-95
2021/09/16 04:02:48;;;;;;;;;;;;;;;20.81;60.32;99372.06;4427266;32;20017;-95
2021/09/16 04:05:13;;;;;;;;;;;;;;;20.88;60.32;99370.63;4427341;32;20015;-94
2021/09/16 04:07:39;;;;;;;;;;;;;;;20.80;60.32;99359.78;4426833;32;19985;-94
2021/09/16 04:10:05;;;;;;;;;;;;;;;20.65;60.31;99361.03;4426356;32;19993;-91
2021/09/16 04:12:30;;;;;;;;;;;;;;;20.58;60.30;99362.47;4424756;32;21029;-92
2021/09/16 04:14:55;;;;;;;;;;;;;;;20.40;60.30;99364.75;4425611;32;20048;-91
2021/09/16 04:17:20;;;;;;;;;;;;;;;20.39;60.28;99368.37;4412104;32;19989;-92
2021/09/16 04:19:46;;;;;;;;;;;;;;;20.41;60.29;99361.19;4424830;32;19974;-94
2021/09/16 04:22:11;;;;;;;;;;;;;;;20.26;60.29;99364.97;4424311;32;29173;-92
2021/09/16 04:24:36;;;;;;;;;;;;;;;20.16;60.29;99364.88;4424986;32;19990;-92
2021/09/16 04:27:01;;;;;;;;;;;;;;;20.15;60.28;99363.19;4424919;32;20045;-93
2021/09/16 04:29:27;;;;;;;;;;;;;;;20.14;60.28;99365.00;4412880;32;20297;-93
2021/09/16 04:31:52;;;;;;;;;;;;;;;19.95;60.28;99374.44;4424794;32;20005;-91
2021/09/16 04:34:17;;;;;;;;;;;;;;;20.10;60.29;99378.53;4425080;32;20013;-92
2021/09/16 04:36:42;;;;;;;;;;;;;;;20.03;60.27;99378.16;4424926;32;19989;-92
2021/09/16 04:39:08;;;;;;;;;;;;;;;20.06;60.27;99385.84;4411488;32;20315;-90
2021/09/16 04:41:33;;;;;;;;;;;;;;;20.01;60.28;99387.19;4424784;32;20323;-92
2021/09/16 04:43:59;;;;;;;;;;;;;;;19.95;60.27;99396.41;4424911;32;20258;-93
2021/09/16 04:46:24;;;;;;;;;;;;;;;19.89;60.27;99403.03;4424969;32;19974;-93
2021/09/16 04:48:49;;;;;;;;;;;;;;;19.78;60.27;99402.12;4414769;32;19961;-92
2021/09/16 04:51:14;;;;;;;;;;;;;;;19.72;60.26;99397.31;4411622;32;20017;-94
2021/09/16 04:53:40;;;;;;;;;;;;;;;19.68;60.25;99401.16;4424850;32;20021;-93
2021/09/16 04:56:05;;;;;;;;;;;;;;;19.75;60.25;99410.28;4424479;32;19977;-94
2021/09/16 04:58:30;;;;;;;;;;;;;;;19.81;60.26;99408.03;4424683;32;19985;-93
2021/09/16 05:00:55;;;;;;;;;;;;;;;19.93;60.27;99409.75;4424289;32;22301;-93
2021/09/16 05:03:21;;;;;;;;;;;;;;;20.07;60.28;99410.47;4411358;32;27443;-94
2021/09/16 05:05:46;;;;;;;;;;;;;;;20.00;60.27;99406.63;4425065;32;20283;-93
2021/09/16 05:08:13;;;;;;;;;;;;;;;20.09;60.28;99400.63;4424560;32;20375;-94
2021/09/16 05:10:38;;;;;;;;;;;;;;;19.85;60.27;99409.47;4432764;32;19954;-92
2021/09/16 05:13:04;;;;;;;;;;;;;;;19.85;60.27;99404.19;4439934;32;20008;-92
2021/09/16 05:15:29;;;;;;;;;;;;;;;19.93;60.27;99396.53;4434184;32;20008;-92
2021/09/16 05:17:54;;;;;;;;;;;;;;;19.90;60.27;99398.56;4427217;32;20016;-93
2021/09/16 05:20:19;;;;;;;;;;;;;;;19.86;60.27;99403.22;4426489;32;20331;-93
2021/09/16 05:22:44;;;;;;;;;;;;;;;19.99;60.27;99410.22;4424717;32;20016;-94
2021/09/16 05:25:10;;;;;;;;;;;;;;;19.87;60.27;99412.88;4424493;32;20001;-92
2021/09/16 05:27:35;;;;;;;;;;;;;;;19.90;60.27;99401.22;4424555;32;20027;-92
2021/09/16 05:30:00;;;;;;;;;;;;;;;20.10;60.28;99397.03;4425481;32;20005;-92
2021/09/16 05:32:28;;;;;;;;;;;;;;;20.28;60.29;99400.06;4423057;32;26816;-93
2021/09/16 05:34:55;;;;;;;;;;;;;;;20.07;60.27;99408.69;4424944;32;20048;-94
2021/09/16 05:37:20;;;;;;;;;;;;;;;19.97;60.27;99409.50;4424371;32;19977;-93
2021/09/16 05:39:45;;;;;;;;;;;;;;;20.17;60.29;99409.69;4424230;32;20046;-94
2021/09/16 05:42:10;;;;;;;;;;;;;;;20.17;60.29;99414.97;4423437;32;22922;-93
2021/09/16 05:44:36;;;;;;;;;;;;;;;20.23;60.29;99413.63;4423197;32;29810;-93
2021/09/16 05:47:01;;;;;;;;;;;;;;;20.52;60.30;99409.59;4424128;32;20001;-93
2021/09/16 05:49:26;;;;;;;;;;;;;;;20.52;60.30;99406.94;4423820;32;20027;-95
2021/09/16 05:51:51;;;;;;;;;;;;;;;20.45;60.29;99402.28;4423811;32;20088;-94
2021/09/16 05:54:16;;;;;;;;;;;;;;;20.49;60.30;99416.94;4423573;32;24845;-96
2021/09/16 05:56:42;;;;;;;;;;;;;;;20.69;60.31;99407.44;4424338;32;19986;-95
2021/09/16 05:59:07;;;;;;;;;;;;;;;20.64;60.30;99418.38;4425021;32;20024;-96
2021/09/16 06:01:32;;;;;;;;;;;;;;;20.66;60.31;99413.81;4424849;32;20032;-95
2021/09/16 06:03:57;;;;;;;;;;;;;;;20.74;60.31;99407.91;4424462;32;21413;-96
2021/09/16 06:06:23;;;;;;;;;;;;;;;20.89;60.32;99416.44;4424765;32;20009;-96
2021/09/16 06:08:48;;;;;;;;;;;;;;;20.90;60.32;99411.03;4424216;32;19982;-95
2021/09/16 06:11:13;;;;;;;;;;;;;;;21.18;60.33;99409.62;4423307;32;21879;-95
2021/09/16 06:13:38;;;;;;;;;;;;;;;21.26;60.34;99406.37;4424003;32;20329;-94
2021/09/16 06:16:04;;;;;;;;;;;;;;;21.52;60.35;99398.94;4423937;32;20019;-95
2021/09/16 06:18:29;;;;;;;;;;;;;;;21.71;60.37;99401.75;4424996;32;20278;-95
2021/09/16 06:20:55;;;;;;;;;;;;;;;21.82;60.37;99396.41;4424951;32;20013;-94
2021/09/16 06:23:20;;;;;;;;;;;;;;;21.97;60.38;99404.88;4425012;32;20022;-95
2021/09/16 06:25:45;;;;;;;;;;;;;;;22.15;60.38;99407.81;4423928;32;20342;-94
2021/09/16 06:28:10;;;;;;;;;;;;;;;22.09;60.38;99406.53;4423233;32;24309;-95
2021/09/16 06:30:36;;;;;;;;;;;;;;;22.23;60.38;99414.13;4423412;32;20015;-95
2021/09/16 06:33:01;;;;;;;;;;;;;;;22.55;60.40;99402.56;4410473;32;24512;-95
2021/09/16 06:35:26;;;;;;;;;;;;;;;22.69;60.41;99394.22;4423628;32;20111;-95
2021/09/16 06:37:51;;;;;;;;;;;;;;;22.72;60.41;99385.19;4423503;32;20003;-95
2021/09/16 06:40:17;;;;;;;;;;;;;;;22.74;60.42;99381.41;4423531;32;20005;-96
2021/09/16 06:42:42;;;;;;;;;;;;;;;22.97;60.43;99379.41;4423665;32;19997;-95
2021/09/16 06:45:07;;;;;;;;;;;;;;;22.95;60.42;99382.22;4425975;32;19985;-95
2021/09/16 06:47:33;;;;;;;;;;;;;;;23.18;60.44;99373.97;4426454;32;19993;-95
2021/09/16 06:49:58;;;;;;;;;;;;;;;23.32;60.44;99376.22;4426344;32;20030;-94
2021/09/16 06:52:23;;;;;;;;;;;;;;;23.46;60.45;99374.97;4425110;32;25824;-94
2021/09/16 06:54:49;;;;;;;;;;;;;;;23.45;60.45;99376.81;4425783;32;20314;-96
2021/09/16 06:57:14;;;;;;;;;;;;;;;23.49;60.45;99390.63;4425721;32;20001;-95
2021/09/16 06:59:39;;;;;;;;;;;;;;;23.56;60.45;99389.97;4425975;32;20009;-96
2021/09/16 07:02:05;;;;;;;;;;;;;;;23.68;60.46;99397.81;4425720;32;20024;-95
2021/09/16 07:04:30;;;;;;;;;;;;;;;23.63;60.46;99406.16;4425607;32;20281;-95
2021/09/16 07:06:58;;;;;;;;;;;;;;;23.83;60.48;99417.62;4425905;32;20049;-95
2021/09/16 07:09:23;;;;;;;;;;;;;;;24.03;60.48;99415.78;4426248;32;19994;-95
2021/09/16 07:11:48;;;;;;;;;;;;;;;24.14;60.49;99424.47;4425197;32;29435;-96
2021/09/16 07:14:13;;;;;;;;;;;;;;;24.32;60.50;99416.59;4425461;32;19977;-96
2021/09/16 07:16:39;;;;;;;;;;;;;;;24.43;60.49;99423.56;4425121;32;34155;-95
2021/09/16 07:19:04;;;;;;;;;;;;;;;24.64;60.51;99423.34;4425857;32;20022;-95
2021/09/16 07:21:29;;;;;;;;;;;;;;;24.74;60.51;99432.13;4425719;32;19985;-96
2021/09/16 07:23:54;;;;;;;;;;;;;;;24.80;60.52;99435.03;4425826;32;20049;-95
2021/09/16 07:26:19;;;;;;;;;;;;;;;24.87;60.52;99431.81;4426071;32;19993;-95
2021/09/16 07:28:45;;;;;;;;;;;;;;;25.09;60.54;99439.41;4427037;32;20005;-96
2021/09/16 07:31:11;;;;;;;;;;;;;;;25.26;60.54;99440.41;4427407;32;20011;-95
2021/09/16 07:33:36;;;;;;;;;;;;;;;25.15;60.54;99445.97;4426300;32;19997;-96
2021/09/16 07:36:01;;;;;;;;;;;;;;;25.23;60.55;99449.56;4413034;32;19997;-96
2021/09/16 07:38:26;;;;;;;;;;;;;;;25.40;60.55;99446.09;4425458;32;20043;-96
2021/09/16 07:40:51;;;;;;;;;;;;;;;25.49;60.56;99446.16;4412156;32;24247;-96
2021/09/16 07:43:17;;;;;;;;;;;;;;;25.67;60.57;99444.37;4425709;32;26516;-96
2021/09/16 07:45:42;;;;;;;;;;;;;;;25.73;60.57;99443.75;4425264;32;20028;-96
2021/09/16 07:48:07;;;;;;;;;;;;;;;26.07;60.58;99435.03;4425986;32;20001;-96
2021/09/16 07:50:33;;;;;;;;;;;;;;;25.96;60.58;99438.78;4414151;32;20322;-95
2021/09/16 07:52:58;;;;;;;;;;;;;;;26.05;60.58;99445.03;4426360;32;20052;-95
2021/09/16 07:55:23;;;;;;;;;;;;;;;26.05;60.59;99437.03;4426131;32;20357;-94
2021/09/16 07:57:48;;;;;;;;;;;;;;;26.05;60.59;99439.69;4426792;32;20045;-96
2021/09/16 08:00:14;;;;;;;;;;;;;;;26.07;60.59;99424.38;4427165;32;19977;-95
2021/09/16 08:02:46;;;;;;;;;;;;;;;26.15;60.59;99427.09;4427385;32;20005;-96
2021/09/16 08:05:11;;;;;;;;;;;;;;;26.06;60.59;99428.03;4427204;32;20050;-96
2021/09/16 08:07:36;;;;;;;;;;;;;;;26.23;60.59;99419.13;4426944;32;19994;-95
2021/09/16 08:10:01;;;;;;;;;;;;;;;26.24;60.59;99421.63;4426299;32;23212;-95
2021/09/16 08:12:27;;;;;;;;;;;;;;;26.22;60.59;99420.94;4427070;32;19996;-94
2021/09/16 08:14:52;;;;;;;;;;;;;;;26.27;60.60;99431.19;4426609;32;20005;-96
2021/09/16 08:17:17;;;;;;;;;;;;;;;26.46;60.61;99422.13;4414512;32;20002;-96
2021/09/16 08:19:42;;;;;;;;;;;;;;;26.49;60.61;99425.31;4426595;32;20020;-95
2021/09/16 08:22:08;;;;;;;;;;;;;;;26.66;60.62;99420.91;4426332;32;21320;-96
2021/09/16 08:24:33;;;;;;;;;;;;;;;26.76;60.63;99426.97;4426547;32;20027;-96
2021/09/16 08:26:58;;;;;;;;;;;;;;;26.95;60.63;99427.69;4427306;32;20001;-95
2021/09/16 08:29:23;;;;;;;;;;;;;;;27.17;60.64;99427.13;4426016;32;20569;-95
2021/09/16 08:31:49;;;;;;;;;;;;;;;27.34;60.65;99428.00;4426265;32;20029;-95
2021/09/16 08:34:14;;;;;;;;;;;;;;;27.56;60.66;99421.19;4426610;32;20012;-96
2021/09/16 08:36:40;;;;;;;;;;;;;;;27.71;60.67;99415.06;4425984;32;20038;-96
2021/09/16 08:39:06;;;;;;;;;;;;;;;27.73;60.67;99425.59;4425996;32;20005;-96
2021/09/16 08:41:33;;;;;;;;;;;;;;;27.94;60.68;99422.41;4426209;32;19985;-95
2021/09/16 08:44:01;;;;;;;;;;;;;;;28.08;60.69;99419.88;4426627;32;19989;-96
2021/09/16 08:46:26;;;;;;;;;;;;;;;28.28;60.70;99423.06;4426129;32;20013;-93
2021/09/16 08:48:56;;;;;;;;;;;;;;;28.35;60.70;99424.03;4432046;32;19945;-93
2021/09/16 08:51:21;;;;;;;;;;;;;;;28.39;60.71;99427.22;4446981;32;20619;-96
2021/09/16 08:53:46;;;;;;;;;;;;;;;28.43;60.71;99426.72;4430226;32;20028;-96
2021/09/16 08:56:12;;;;;;;;;;;;;;;28.60;60.71;99422.13;4436186;32;20042;-96
2021/09/16 08:58:37;;;;;;;;;;;;;;;28.38;60.71;99426.38;4419639;32;19992;-96
2021/09/16 09:01:02;;;;;;;;;;;;;;;28.41;60.71;99425.22;4429204;32;20296;-95
2021/09/16 09:03:28;;;;;;;;;;;;;;;28.44;60.71;99419.53;4425981;32;20026;-96
2021/09/16 09:05:53;;;;;;;;;;;;;;;28.47;60.72;99415.66;4426350;32;20059;-96
2021/09/16 09:08:25;;;;;;;;;;;;;;;28.66;60.72;99415.28;4424897;32;19978;-96
2021/09/16 09:10:51;;;;;;;;;;;;;;;28.52;60.71;99422.16;4425860;32;19997;-96
2021/09/16 09:13:26;;;;;;;;;;;;;;;28.43;60.71;99413.34;4425645;32;19972;-95
2021/09/16 09:15:58;;;;;;;;;;;;;;;28.64;60.72;99417.28;4425692;32;20051;-94
2021/09/16 09:18:23;;;;;;;;;;;;;;;28.71;60.73;99402.19;4425466;32;19982;-94
2021/09/16 09:20:53;;;;;;;;;;;;;;;28.66;60.72;99407.25;4425278;32;20354;-95
2021/09/16 09:23:25;;;;;;;;;;;;;;;28.80;60.74;99405.66;4425206;32;19954;-94
2021/09/16 09:25:50;;;;;;;;;;;;;;;29.14;60.75;99406.19;4426526;32;19993;-94
2021/09/16 09:28:29;;;;;;;;;;;;;;;29.39;60.76;99395.31;4425961;32;20270;-93
2021/09/16 09:30:54;;;;;;;;;;;;;;;29.52;60.77;99395.56;4424131;32;20052;-94
2021/09/16 09:33:25;;;;;;;;;;;;;;;29.49;60.77;99396.78;4424362;32;20037;-93
2021/09/16 09:35:50;;;;;;;;;;;;;;;29.47;60.76;99398.81;4424361;32;19993;-94
2021/09/16 09:38:17;;;;;;;;;;;;;;;29.50;60.77;99395.75;4423616;32;21814;-94
2021/09/16 09:40:42;;;;;;;;;;;;;;;29.59;60.77;99394.69;4423909;32;19990;-93
2021/09/16 09:43:17;;;;;;;;;;;;;;;29.73;60.78;99408.31;4424039;32;19989;-93
2021/09/16 09:46:02;;;;;;;;;;;;;;;29.92;60.79;99405.97;4438075;32;20064;-92
2021/09/16 09:48:27;;;;;;;;;;;;;;;30.01;60.80;99406.72;4423658;32;20118;-91
2021/09/16 09:50:52;;;;;;;;;;;;;;;30.06;60.80;99393.66;4423535;32;20001;-91
2021/09/16 09:53:18;;;;;;;;;;;;;;;30.05;60.79;99404.53;4423349;32;19998;-91
2021/09/16 09:55:43;;;;;;;;;;;;;;;30.16;60.80;99404.09;4422767;32;20593;-90
2021/09/16 09:58:08;;;;;;;;;;;;;;;30.17;60.80;99395.88;4423214;32;19974;-89
2021/09/16 10:00:33;;;;;;;;;;;;;;;30.35;60.81;99394.69;4435491;32;20016;-89
2021/09/16 10:03:00;;;;;;;;;;;;;;;30.40;60.81;99390.41;4422705;32;20856;-89
2021/09/16 10:05:35;;;;;;;;;;;;;;;30.26;60.81;99388.56;4423193;32;20002;-89
2021/09/16 10:08:11;;;;;;;;;;;;;;;30.18;60.80;99391.34;4422964;32;20381;-89
2021/09/16 10:10:43;;;;;;;;;;;;;;;30.41;60.82;99388.56;4437273;32;20004;-89
2021/09/16 10:13:11;;;;;;;;;;;;;;;30.43;60.81;99398.09;4437206;32;19992;-89
2021/09/16 10:15:36;;;;;;;;;;;;;;;30.49;60.81;99396.53;4422981;32;19994;-89
2021/09/16 10:18:01;;;;;;;;;;;;;;;30.51;60.83;99391.78;4423117;32;20020;-89
2021/09/16 10:20:27;;;;;;;;;;;;;;;30.75;60.83;99386.16;4424753;32;20322;-89
2021/09/16 10:22:53;;;;;;;;;;;;;;;30.76;60.82;99378.97;4439084;32;19997;-89
2021/09/16 10:25:19;;;;;;;;;;;;;;;30.65;60.83;99376.72;4424946;32;19997;-89
2021/09/16 10:27:45;;;;;;;;;;;;;;;30.77;60.83;99370.72;4425247;32;19977;-89
2021/09/16 10:30:23;;;;;;;;;;;;;;;30.94;60.84;99381.22;4439332;32;19991;-89
2021/09/16 10:33:06;;;;;;;;;;;;;;;30.98;60.84;99377.97;4439307;32;20003;-88
2021/09/16 10:35:32;;;;;;;;;;;;;;;31.27;60.85;99376.25;4439037;32;19993;-89
2021/09/16 10:38:15;;;;;;;;;;;;;;;31.40;60.87;99371.00;4424829;32;19977;-89
2021/09/16 10:40:40;;;;;;;;;;;;;;;31.42;60.87;99374.31;4424626;32;20310;-88
2021/09/16 10:43:06;;;;;;;;;;;;;;;31.45;60.87;99374.75;4424458;32;19995;-89
2021/09/16 10:45:32;;;;;;;;;;;;;;;31.68;60.88;99384.50;4424655;32;20379;-89
2021/09/16 10:48:13;;;;;;;;;;;;;;;31.73;60.88;99388.31;4424791;32;19973;-89
2021/09/16 10:51:01;;;;;;;;;;;;;;;31.82;60.89;99389.00;4439015;32;20086;-88
2021/09/16 10:53:35;;;;;;;;;;;;;;;32.08;60.90;99384.84;4439199;32;20047;-87
2021/09/16 10:56:04;;;;;;;;;;;;;;;32.28;60.90;99380.47;4438863;32;20334;-86
2021/09/16 10:58:29;;;;;;;;;;;;;;;32.54;60.92;99369.81;4438955;32;20032;-86
2021/09/16 11:00:54;;;;;;;;;;;;;;;32.57;60.92;99374.81;4438727;32;20084;-86
2021/09/16 11:03:20;;;;;;;;;;;;;;;32.56;60.92;99383.94;4424594;32;20055;-87
2021/09/16 11:05:50;;;;;;;;;;;;;;;32.70;60.93;99376.75;4438748;32;20384;-86
2021/09/16 11:08:15;;;;;;;;;;;;;;;32.70;60.93;99384.00;4437312;32;20045;-86
2021/09/16 11:10:41;;;;;;;;;;;;;;;32.86;60.94;99368.31;4438653;32;19997;-86
2021/09/16 11:13:25;;;;;;;;;;;;;;;32.96;60.94;99368.78;4438810;32;20029;-87
2021/09/16 11:15:53;;;;;;;;;;;;;;;32.93;60.94;99371.06;4438940;32;20043;-87
2021/09/16 11:18:20;;;;;;;;;;;;;;;32.86;60.94;99365.62;4424675;32;20000;-86
2021/09/16 11:20:46;;;;;;;;;;;;;;;32.56;60.92;99359.69;4438993;32;19981;-86
2021/09/16 11:23:11;;;;;;;;;;;;;;;32.39;60.91;99365.59;4424868;32;20420;-86
2021/09/16 11:25:37;;;;;;;;;;;;;;;32.30;60.91;99362.25;4424712;32;20007;-86
2021/09/16 11:28:02;;;;;;;;;;;;;;;32.46;60.92;99378.09;4438515;32;19990;-86
2021/09/16 11:30:27;;;;;;;;;;;;;;;32.61;60.92;99367.16;4423680;32;20228;-86
2021/09/16 11:32:54;;;;;;;;;;;;;;;32.25;60.90;99364.66;4424376;32;20042;-86
2021/09/16 11:35:19;;;;;;;;;;;;;;;32.40;60.92;99346.53;4424644;32;20319;-86
2021/09/16 11:37:45;;;;;;;;;;;;;;;32.72;60.93;99355.00;4438458;32;20046;-86
2021/09/16 11:40:15;;;;;;;;;;;;;;;32.56;60.92;99348.06;4424270;32;19973;-86
2021/09/16 11:42:41;;;;;;;;;;;;;;;32.74;60.93;99344.84;4424466;32;19997;-86
2021/09/16 11:45:09;;;;;;;;;;;;;;;32.71;60.94;99348.75;4424587;32;19989;-86
2021/09/16 11:47:38;;;;;;;;;;;;;;;32.96;60.95;99332.91;4438567;32;19974;-86
2021/09/16 11:50:05;;;;;;;;;;;;;;;32.79;60.94;99334.28;4424141;32;19989;-86
2021/09/16 11:52:30;;;;;;;;;;;;;;;32.74;60.93;99342.12;4438421;32;20004;-86
2021/09/16 11:55:03;;;;;;;;;;;;;;;32.78;60.94;99336.13;4424103;32;19985;-86
2021/09/16 11:57:28;;;;;;;;;;;;;;;32.92;60.95;99342.44;4424217;32;19973;-86
2021/09/16 11:59:53;;;;;;;;;;;;;;;32.86;60.94;99348.62;4423440;32;27205;-86
2021/09/16 12:02:18;;;;;;;;;;;;;;;32.70;60.94;99340.88;4438378;32;20334;-87
2021/09/16 12:04:45;;;;;;;;;;;;;;;32.77;60.94;99349.81;4423745;32;22957;-86
2021/09/16 12:07:10;;;;;;;;;;;;;;;32.99;60.95;99345.97;4438508;32;20008;-86
2021/09/16 12:09:35;;;;;;;;;;;;;;;33.05;60.95;99341.62;4437978;32;24006;-86
2021/09/16 12:12:00;;;;;;;;;;;;;;;33.05;60.94;99337.06;4424048;32;20050;-86
2021/09/16 12:14:26;;;;;;;;;;;;;;;32.97;60.94;99329.19;4423685;32;20263;-85
2021/09/16 12:16:51;;;;;;;;;;;;;;;32.89;60.94;99338.28;4422820;32;20019;-85
2021/09/16 12:19:16;;;;;;;;;;;;;;;32.85;60.95;99337.00;4423245;32;19969;-84
2021/09/16 12:21:42;;;;;;;;;;;;;;;32.61;60.93;99332.13;4423279;32;20289;-86
2021/09/16 12:24:10;;;;;;;;;;;;;;;32.76;60.94;99340.91;4423333;32;20068;-85
2021/09/16 12:26:36;;;;;;;;;;;;;;;32.83;60.95;99343.63;4437348;32;19985;-87
2021/09/16 12:29:03;;;;;;;;;;;;;;;32.44;60.93;99331.66;4423184;32;20314;-88
2021/09/16 12:31:31;;;;;;;;;;;;;;;32.67;60.93;99328.66;4437214;32;20543;-86
2021/09/16 12:33:57;;;;;;;;;;;;;;;32.87;60.95;99331.41;4423471;32;20519;-85
2021/09/16 12:36:22;;;;;;;;;;;;;;;33.02;60.95;99324.00;4423587;32;19982;-87
2021/09/16 12:38:47;;;;;;;;;;;;;;;33.15;60.95;99318.66;4436984;32;20012;-87
2021/09/16 12:41:19;;;;;;;;;;;;;;;33.25;60.96;99329.03;4437070;32;20007;-85
2021/09/16 12:43:44;;;;;;;;;;;;;;;33.37;60.96;99311.22;4437369;32;19989;-84
2021/09/16 12:46:16;;;;;;;;;;;;;;;33.36;60.97;99311.41;4436651;32;28515;-85
2021/09/16 12:48:42;;;;;;;;;;;;;;;33.02;60.95;99307.81;4437332;32;19982;-85
2021/09/16 12:51:07;;;;;;;;;;;;;;;33.40;60.97;99307.28;4423266;32;20342;-86